Cheb, Czech Republic

11:46 AM CEST on September 18, 2014 (GMT +0200)
Stiftland | Change Station
CLOSE
Current Station
Personal Weather Station
Location: Tirschenreuth, BAVARIA
Elevation: 1680 ft
Nearby Weather Stations

Elev 1680 ft 49.88 °N, 12.34 °E | Updated 4 minutes ago

Mostly Cloudy
Mostly Cloudy
63.2 °F
Feels Like 63.2 °F
N
3.0
Wind Variable Wind from East
Gusts 7.0 mph

Today
High -- | Low -- °F
--% Chance of Precip.
Yesterday
High -- | Low -- °F
Precip. -- in
6:50 AM 7:17 PM
Waning Crescent, 28% visible
Pressure 30.01 in
Visibility 6.2 miles
Clouds Mostly Cloudy 1100 ft
Dew Point 56 °F
Humidity 77%
Rainfall 0.00 in
Snow Depth Not available.
UV 2.9 out of 12
Pollen Not available.
Air Quality Not available.
Flu Activity Not available.
METAR LKKV 180930Z 06005KT 9999 BKN011 14/11 Q1016

More Conditions Fewer Conditions

Pressure 30.01 in
Visibility 6.2 miles
Clouds Mostly Cloudy 1100 ft
Dew Point 56 °F
Humidity 77%
Rainfall 0.00 in
Snow Depth Not available.
UV 2.9 out of 12
Pollen Not available.
Air Quality Not available.
Flu Activity Not available.
METAR LKKV 180930Z 06005KT 9999 BKN011 14/11 Q1016

More Conditions Fewer Conditions

10-Day Weather Forecast

Almanac

Astronomy

Sep. 18, 2014 Rise Set
Actual Time 6:50 AM CEST 7:17 PM CEST
Civil Twilight 6:17 AM CEST 7:50 PM CEST
Nautical Twilight 5:39 AM CEST 8:28 PM CEST
Astronomical Twilight 4:58 AM CEST 9:08 PM CEST
Moon 1:03 AM CEST 4:19 PM CEST
Length of Visible Light 13h 32m
Length of Day
12h 27m
Tomorrow will be 3m 42s shorter.
Waning Crescent, 28% of the Moon is Illuminated
Today
Waning Crescent
Sep 24
New
Oct 1
First Quarter
Oct 8
Full
Oct 15
Last Quarter

Yesterday's Extremes

Country Highs Country Lows

Community

WunderPhotos

Upload Photos

1,754,312 photos uploaded!

Nearby

Snow Depth

Not available.

Earthquake Activity

City Distance Mag. Time & Date
No recent earthquake activity has been reported nearby.
Minimum magnitude displayed is 2.5.

Coastal Water Temperatures

Place Temperature
No Stations Reporting

Nearby Weather Stations